Menno, Pennsylvania
Current Conditions -  °F | °C
As of 2:55 AM on Sunday 26 Oct 2014 (Local Time) from KUNV Reporting Station
Clear Clear  
Wind Chill: 54°   Ceiling: Unl
Heat Index: 54°   Visibility: 10mi
Dew Point: 34°   Wind: 20mph
Humidity: 47%   Direction: 300°WNW
Pressure: 29.7"   Gusts: 28mph
Location:  40.5962°N, 77.7424°W
Report Text: KUNV 260655Z AUTO 30017G24KT 10SM CLR 12/01 A2970 RMK AO2 T01230011
Loading
Personal Weather Stations






























Interactive Weather Map
Tropical Storm Tracking
New forecast layout! Learn more

10-Day Weather Forecast

Advertisements
Track Severe Weather on mobile